createdAt,value
2023-05-05T00:03:37.256Z,28.5
2023-05-05T00:09:28.815Z,28.5
2023-05-05T00:15:20.519Z,28.5
2023-05-05T00:21:13.621Z,28.5
2023-05-05T00:27:04.463Z,28.5
2023-05-05T00:32:59.987Z,28.4
2023-05-05T00:38:51.829Z,28.4
2023-05-05T00:44:42.715Z,28.4
2023-05-05T00:50:35.299Z,28.4
2023-05-05T00:56:27.140Z,28.4
2023-05-05T01:02:18.287Z,28.4
2023-05-05T01:08:10.543Z,28.4
2023-05-05T01:14:17.429Z,28.4
2023-05-05T01:20:08.864Z,28.4
2023-05-05T01:26:00.333Z,28.4
2023-05-05T01:31:52.195Z,28.4
2023-05-05T01:37:43.323Z,28.4
2023-05-05T01:43:19.624Z,28.4
2023-05-05T01:49:12.122Z,28.4
2023-05-05T01:54:47.784Z,28.4
2023-05-05T02:00:39.154Z,28.3
2023-05-05T02:06:32.131Z,28.3
2023-05-05T02:12:23.520Z,28.3
2023-05-05T02:18:15.849Z,28.3
2023-05-05T02:24:07.778Z,28.3
2023-05-05T02:29:58.810Z,28.3
2023-05-05T02:35:50.856Z,28.3
2023-05-05T02:41:42.410Z,28.3
2023-05-05T02:47:33.413Z,28.3
2023-05-05T02:53:09.722Z,28.3
2023-05-05T02:58:45.909Z,28.3
2023-05-05T03:04:38.188Z,28.3
2023-05-05T03:10:29.794Z,28.3
2023-05-05T03:16:06.511Z,28.3
2023-05-05T03:21:59.380Z,28.2
2023-05-05T03:27:51.858Z,28.2
2023-05-05T03:33:44.528Z,28.2
2023-05-05T03:39:36.275Z,28.2
2023-05-05T03:45:27.881Z,28.2
2023-05-05T03:51:04.954Z,28.1
2023-05-05T03:56:40.630Z,28.1
2023-05-05T04:02:34.294Z,28.1
2023-05-05T04:08:26.523Z,28.1
2023-05-05T04:14:17.421Z,28.1
2023-05-05T04:20:08.542Z,28.1
2023-05-05T04:26:00.618Z,28.1
2023-05-05T04:31:36.267Z,28.1
2023-05-05T04:36:41.466Z,28.1
2023-05-05T04:42:04.038Z,28.1
2023-05-05T04:53:00.942Z,28.1
2023-05-05T04:58:37.521Z,28
2023-05-05T05:04:14.529Z,28
2023-05-05T05:09:34.694Z,28
2023-05-05T05:14:41.033Z,28
2023-05-05T05:20:33.132Z,28
2023-05-05T05:25:53.182Z,28
2023-05-05T05:31:44.106Z,27.9
2023-05-05T05:37:35.501Z,27.9
2023-05-05T05:42:55.445Z,27.9
2023-05-05T05:48:47.710Z,27.9
2023-05-05T05:54:09.112Z,27.9
2023-05-05T05:59:44.592Z,27.9
2023-05-05T06:05:23.464Z,27.9
2023-05-05T06:11:15.221Z,27.9
2023-05-05T06:16:53.585Z,27.9
2023-05-05T06:22:30.279Z,27.9
2023-05-05T06:59:42.383Z,27.8
2023-05-05T07:05:03.448Z,27.8
2023-05-05T07:10:25.208Z,27.8
2023-05-05T07:15:59.809Z,27.8
2023-05-05T07:21:36.450Z,27.8
2023-05-05T07:26:58.428Z,27.8
2023-05-05T07:32:23.863Z,27.7
2023-05-05T07:38:00.072Z,27.7
2023-05-05T07:43:38.815Z,27.7
2023-05-05T07:49:17.431Z,27.7
2023-05-05T07:55:11.238Z,27.6
2023-05-05T08:00:48.032Z,27.7
2023-05-05T08:06:13.110Z,27.6
2023-05-05T08:11:49.428Z,27.6
2023-05-05T08:17:27.596Z,27.6
2023-05-05T08:23:16.237Z,27.6
2023-05-05T08:28:53.098Z,27.6
2023-05-05T08:34:30.031Z,27.6
2023-05-05T08:40:07.385Z,27.6
2023-05-05T08:46:02.470Z,27.6
2023-05-05T08:51:39.856Z,27.6
2023-05-05T08:57:02.366Z,27.6
2023-05-05T09:02:39.132Z,27.5
2023-05-05T09:08:00.783Z,27.5
2023-05-05T09:13:06.593Z,27.5
2023-05-05T09:18:12.116Z,27.5
2023-05-05T09:23:34.999Z,27.5
2023-05-05T09:28:57.171Z,27.5
2023-05-05T09:34:18.296Z,27.5
2023-05-05T09:39:40.825Z,27.4
2023-05-05T09:45:17.070Z,27.4
2023-05-05T09:51:10.345Z,27.4
2023-05-05T09:56:31.885Z,27.4
2023-05-05T10:01:53.252Z,27.4
2023-05-05T10:07:14.850Z,27.4
2023-05-05T10:12:52.253Z,27.4
2023-05-05T10:18:24.350Z,27.4
2023-05-05T10:23:45.879Z,27.4
2023-05-05T10:29:08.547Z,27.4
2023-05-05T10:35:23.349Z,27.3
2023-05-05T10:40:44.579Z,27.3
2023-05-05T10:46:05.869Z,27.3
2023-05-05T10:51:41.255Z,27.3
2023-05-05T10:57:18.233Z,27.3
2023-05-05T11:02:58.535Z,27.3
2023-05-05T11:08:05.092Z,27.3
2023-05-05T11:13:44.639Z,27.3
2023-05-05T11:19:06.464Z,27.3
2023-05-05T11:24:28.156Z,27.3
2023-05-05T11:29:50.275Z,27.2
2023-05-05T11:35:15.381Z,27.2
2023-05-05T11:40:38.905Z,27.2
2023-05-05T11:46:21.276Z,27.2
2023-05-05T11:51:43.479Z,27.2
2023-05-05T11:57:22.937Z,27.1
2023-05-05T12:02:29.315Z,27.1
2023-05-05T12:08:10.776Z,27.1
2023-05-05T12:13:49.272Z,27.1
2023-05-05T12:18:56.200Z,27.1
2023-05-05T12:24:48.229Z,27.1
2023-05-05T12:30:26.401Z,27.1
2023-05-05T12:35:48.621Z,27.1
2023-05-05T12:41:10.337Z,27.1
2023-05-05T12:46:32.606Z,27.1
2023-05-05T12:52:12.038Z,27.1
2023-05-05T12:58:04.924Z,27
2023-05-05T13:03:29.015Z,27
2023-05-05T13:09:21.753Z,27
2023-05-05T13:15:16.486Z,27
2023-05-05T13:21:09.555Z,27
2023-05-05T13:27:26.187Z,27
2023-05-05T13:33:05.587Z,26.9
2023-05-05T13:38:58.130Z,26.9
2023-05-05T13:44:35.590Z,26.9
2023-05-05T13:50:27.256Z,26.9
2023-05-05T13:56:21.617Z,26.9
2023-05-05T14:02:15.981Z,26.9
2023-05-05T14:08:12.113Z,26.9
2023-05-05T14:14:05.974Z,26.9
2023-05-05T14:19:43.322Z,26.9
2023-05-05T14:25:37.803Z,26.8
2023-05-05T14:31:30.964Z,26.8
2023-05-05T14:37:25.446Z,26.8
2023-05-05T14:43:18.915Z,26.8
2023-05-05T14:49:12.753Z,26.8
2023-05-05T14:55:16.926Z,26.8
2023-05-05T15:01:10.915Z,26.8
2023-05-05T15:07:07.951Z,26.8
2023-05-05T15:13:01.116Z,26.8
2023-05-05T15:18:40.305Z,26.8
2023-05-05T15:24:19.471Z,26.7
2023-05-05T15:29:57.349Z,26.7
2023-05-05T15:35:51.240Z,26.7
2023-05-05T15:41:45.861Z,24.6
2023-05-05T15:47:40.639Z,24.2
2023-05-05T15:53:22.794Z,24.2
2023-05-05T15:59:18.617Z,24.3
2023-05-05T16:04:58.982Z,24.3
2023-05-05T16:10:54.809Z,24.3
2023-05-05T16:16:51.206Z,24.3
2023-05-05T16:22:30.470Z,24.3
2023-05-05T16:28:10.964Z,24.3
2023-05-05T16:33:52.296Z,23.8
2023-05-05T16:39:32.616Z,23.3
2023-05-05T16:45:28.880Z,23.2
2023-05-05T16:51:25.369Z,23.1
2023-05-05T16:56:49.479Z,23
2023-05-05T17:02:15.160Z,22.9
2023-05-05T17:07:56.648Z,22.8
2023-05-05T17:13:37.676Z,22.8
2023-05-05T17:19:35.166Z,22.8
2023-05-05T17:25:35.151Z,22.8
2023-05-05T17:31:32.619Z,22.7
2023-05-05T17:37:31.087Z,22.7
2023-05-05T17:43:29.811Z,22.7
2023-05-05T17:49:28.355Z,22.7
2023-05-05T17:55:26.707Z,22.7
2023-05-05T18:01:25.817Z,22.7
2023-05-05T18:07:25.606Z,22.7
2023-05-05T18:13:24.411Z,22.7
2023-05-05T18:19:23.177Z,22.8
2023-05-05T18:25:34.644Z,22.8
2023-05-05T18:31:31.742Z,22.8
2023-05-05T18:37:33.037Z,22.8
2023-05-05T18:43:29.824Z,22.8
2023-05-05T18:49:31.208Z,22.8
2023-05-05T18:55:29.241Z,22.8
2023-05-05T19:01:28.170Z,22.8
2023-05-05T19:08:04.808Z,22.9
2023-05-05T19:14:03.444Z,22.9
2023-05-05T19:20:02.630Z,22.9
2023-05-05T19:26:03.180Z,22.9
2023-05-05T19:32:03.010Z,22.9
2023-05-05T19:38:02.133Z,22.9
2023-05-05T19:43:59.563Z,22.9
2023-05-05T19:49:58.597Z,22.9
2023-05-05T19:55:57.154Z,23
2023-05-05T20:01:55.598Z,23
2023-05-05T20:07:54.505Z,23.1
2023-05-05T20:13:53.271Z,23.1
2023-05-05T20:19:51.974Z,23.1
2023-05-05T20:25:51.334Z,23.1
2023-05-05T20:31:49.543Z,23.1
2023-05-05T20:37:47.375Z,23.1
2023-05-05T20:43:45.795Z,23.1
2023-05-05T20:49:48.525Z,23.1
2023-05-05T20:55:46.934Z,23.1
2023-05-05T21:01:47.114Z,23.1
2023-05-05T21:07:46.064Z,23.1
2023-05-05T21:13:43.500Z,23.1
2023-05-05T21:19:42.109Z,23.1
2023-05-05T21:25:40.136Z,23.1
2023-05-05T21:31:56.068Z,23.2
2023-05-05T21:37:53.699Z,23.2
2023-05-05T21:43:51.857Z,23.2
2023-05-05T21:49:48.859Z,23.2
2023-05-05T21:55:45.589Z,23.3
2023-05-05T22:01:41.085Z,23.2
2023-05-05T22:07:21.247Z,23.2
2023-05-05T22:13:16.690Z,23.2
2023-05-05T22:19:17.564Z,23.3
2023-05-05T22:25:12.375Z,23.3
2023-05-05T22:31:08.559Z,23.3
2023-05-05T22:37:02.483Z,23.3
2023-05-05T22:42:41.254Z,23.3
2023-05-05T22:54:13.820Z,23.3
2023-05-05T23:00:07.793Z,23.3
2023-05-05T23:06:02.485Z,23.3
2023-05-05T23:11:55.271Z,23.3
2023-05-05T23:17:48.054Z,23.3
2023-05-05T23:23:49.326Z,23.3
2023-05-05T23:29:25.775Z,23.3
2023-05-05T23:35:02.448Z,23.3
2023-05-05T23:40:39.772Z,23.3
2023-05-05T23:46:16.476Z,23.3
2023-05-05T23:51:52.540Z,23.3
2023-05-05T23:57:29.765Z,23.3
